Time;durP1;ratioP1;P1;durP2;ratioP2;P2;SDS_P1;SDS_P2;PMS_P1;PMS_P2;Temp;Humidity;BMP_temperature;BMP_pressure;BME280_temperature;BME280_humidity;BME280_pressure;Samples;Min_cycle;Max_cycle;Signal;HPM_P1;HPM_P2
2022/09/03 00:02:05;;;;;;;1.75;0.70;;;16.40;77.40;;;;;;4324395;28;9999952;-73
2022/09/03 00:04:52;;;;;;;2.17;0.75;;;16.40;77.50;;;;;;5010577;28;20151;-72
2022/09/03 00:07:29;;;;;;;1.35;0.77;;;16.40;77.50;;;;;;5018111;28;20013;-73
2022/09/03 00:10:02;;;;;;;1.38;0.82;;;16.40;77.70;;;;;;5009634;28;20096;-73
2022/09/03 00:12:35;;;;;;;1.13;0.75;;;16.30;77.60;;;;;;5018127;28;20445;-72
2022/09/03 00:15:04;;;;;;;3.13;0.90;;;16.30;78.00;;;;;;5018362;28;20030;-73
2022/09/03 00:17:36;;;;;;;1.80;0.75;;;16.30;78.00;;;;;;5010761;28;20087;-72
2022/09/03 00:20:07;;;;;;;3.40;0.70;;;16.20;78.00;;;;;;5010948;28;20057;-73
2022/09/03 00:22:38;;;;;;;1.65;0.60;;;16.20;78.10;;;;;;5014473;28;20061;-72
2022/09/03 00:25:10;;;;;;;1.95;0.70;;;16.20;78.30;;;;;;5014806;28;20021;-73
2022/09/03 00:27:39;;;;;;;1.17;0.80;;;16.20;78.30;;;;;;5006461;28;20025;-73
2022/09/03 00:30:08;;;;;;;1.60;0.70;;;16.10;78.50;;;;;;5013057;28;20037;-72
2022/09/03 00:32:51;;;;;;;1.58;0.65;;;16.10;78.40;;;;;;5010869;28;20040;-73
2022/09/03 00:35:30;;;;;;;3.90;0.60;;;16.10;78.70;;;;;;5016237;28;20033;-73
2022/09/03 00:37:57;;;;;;;2.15;0.93;;;16.10;79.00;;;;;;5014065;28;20059;-72
2022/09/03 00:41:04;;;;;;;0.73;0.60;;;16.10;79.20;;;;;;5011013;28;20220;-73
2022/09/03 00:43:49;;;;;;;2.10;0.82;;;16.10;79.10;;;;;;4997666;28;20534;-73
2022/09/03 00:46:33;;;;;;;1.27;0.80;;;16.00;79.10;;;;;;5007022;28;20065;-73
2022/09/03 00:49:34;;;;;;;2.35;0.70;;;16.00;79.20;;;;;;5007724;28;20022;-73
2022/09/03 00:52:14;;;;;;;1.10;0.60;;;16.00;79.30;;;;;;5012475;28;20675;-73
2022/09/03 00:55:01;;;;;;;2.13;0.80;;;16.00;79.20;;;;;;5005787;28;20037;-73
2022/09/03 00:57:49;;;;;;;3.38;0.90;;;15.90;79.60;;;;;;5007130;28;20041;-73
2022/09/03 01:00:20;;;;;;;1.90;0.70;;;15.90;80.00;;;;;;5006143;28;20032;-73
2022/09/03 01:02:49;;;;;;;1.15;0.80;;;15.80;80.10;;;;;;5007522;28;20084;-73
2022/09/03 01:05:37;;;;;;;1.08;0.60;;;15.80;80.30;;;;;;5013015;28;20084;-73
2022/09/03 01:08:30;;;;;;;2.90;0.70;;;15.70;80.70;;;;;;5017546;28;20022;-73
2022/09/03 01:11:18;;;;;;;0.95;0.70;;;15.70;81.00;;;;;;5015433;28;20481;-73
2022/09/03 01:14:13;;;;;;;1.13;0.80;;;15.50;81.40;;;;;;5012381;28;20045;-73
2022/09/03 01:17:04;;;;;;;2.72;0.70;;;15.40;81.80;;;;;;5020029;28;20048;-73
2022/09/03 01:19:59;;;;;;;1.83;0.95;;;15.30;82.60;;;;;;5014271;28;20037;-72
2022/09/03 01:22:53;;;;;;;1.13;0.73;;;15.30;82.90;;;;;;5007989;28;20084;-72
2022/09/03 01:25:49;;;;;;;1.67;0.80;;;15.20;83.10;;;;;;5008626;28;20025;-73
2022/09/03 01:28:39;;;;;;;3.00;1.00;;;15.10;83.30;;;;;;5017439;28;20088;-72
2022/09/03 01:31:25;;;;;;;1.08;0.80;;;15.10;83.70;;;;;;5018483;28;20037;-72
2022/09/03 01:34:33;;;;;;;0.68;0.65;;;15.10;83.90;;;;;;4969726;28;20065;-72
2022/09/03 01:37:21;;;;;;;1.42;0.75;;;15.00;84.00;;;;;;5007273;28;20033;-73
2022/09/03 01:40:20;;;;;;;3.45;1.00;;;14.90;84.30;;;;;;5008340;28;20108;-72
2022/09/03 01:42:59;;;;;;;2.67;0.70;;;14.90;84.40;;;;;;5018589;28;20484;-73
2022/09/03 01:45:47;;;;;;;4.43;1.00;;;14.90;84.20;;;;;;5015272;28;20034;-73
2022/09/03 01:48:29;;;;;;;1.45;0.80;;;14.80;84.60;;;;;;5012621;28;20025;-73
2022/09/03 01:51:07;;;;;;;2.05;0.80;;;14.80;84.80;;;;;;5012017;28;20018;-72
2022/09/03 01:53:39;;;;;;;2.55;0.90;;;14.80;85.00;;;;;;5018544;28;20105;-73
2022/09/03 01:56:14;;;;;;;1.05;0.93;;;14.70;85.30;;;;;;5016889;28;20370;-72
2022/09/03 01:59:02;;;;;;;1.35;0.70;;;14.70;85.40;;;;;;5015418;28;20128;-73
2022/09/03 02:01:44;;;;;;;2.78;0.80;;;14.60;85.90;;;;;;5011215;28;20025;-73
2022/09/03 02:04:22;;;;;;;1.73;0.70;;;14.70;85.80;;;;;;5014929;28;20643;-73
2022/09/03 02:06:52;;;;;;;1.10;0.80;;;14.70;85.50;;;;;;5021745;28;20038;-72
2022/09/03 02:09:18;;;;;;;2.17;0.90;;;14.80;85.40;;;;;;5016254;28;20151;-72
2022/09/03 02:11:52;;;;;;;3.35;0.90;;;14.80;85.20;;;;;;5018419;28;20025;-73
2022/09/03 02:14:18;;;;;;;0.90;0.70;;;14.90;85.10;;;;;;5013897;28;20759;-73
2022/09/03 02:16:45;;;;;;;3.40;0.95;;;14.90;84.70;;;;;;5016903;28;20034;-73
2022/09/03 02:19:15;;;;;;;2.92;0.80;;;15.00;84.70;;;;;;5017231;28;20073;-73
2022/09/03 02:21:53;;;;;;;4.05;0.80;;;15.00;85.30;;;;;;5016083;28;20048;-73
2022/09/03 02:24:18;;;;;;;0.93;0.80;;;15.00;84.90;;;;;;5009350;28;20029;-73
2022/09/03 02:26:45;;;;;;;1.02;0.88;;;14.90;85.20;;;;;;5009110;28;20363;-73
2022/09/03 02:29:12;;;;;;;1.77;0.80;;;14.80;86.20;;;;;;5017240;28;20045;-73
2022/09/03 02:31:38;;;;;;;2.85;0.90;;;14.80;86.10;;;;;;5014389;28;20033;-72
2022/09/03 02:34:04;;;;;;;1.52;0.80;;;14.70;86.20;;;;;;5013223;28;20096;-73
2022/09/03 02:36:38;;;;;;;1.10;1.00;;;14.70;85.90;;;;;;5008051;28;20057;-73
2022/09/03 02:39:05;;;;;;;3.22;0.98;;;14.70;85.80;;;;;;5017143;28;20209;-72
2022/09/03 02:41:31;;;;;;;1.38;0.93;;;14.80;85.60;;;;;;5016751;28;20041;-72
2022/09/03 02:44:07;;;;;;;1.50;0.82;;;14.80;85.60;;;;;;5013358;28;20052;-73
2022/09/03 02:46:47;;;;;;;1.42;0.80;;;14.80;85.40;;;;;;5018693;28;20029;-72
2022/09/03 02:49:13;;;;;;;1.70;1.10;;;14.80;85.60;;;;;;5017580;28;20386;-72
2022/09/03 02:51:41;;;;;;;1.30;0.82;;;14.80;85.70;;;;;;5016086;28;20033;-72
2022/09/03 02:54:08;;;;;;;1.23;0.80;;;14.90;85.40;;;;;;5013472;28;20040;-72
2022/09/03 02:56:34;;;;;;;0.90;0.80;;;14.90;85.40;;;;;;5017076;28;20099;-72
2022/09/03 02:59:00;;;;;;;1.83;0.80;;;14.90;85.50;;;;;;5014155;28;20655;-72
2022/09/03 03:01:26;;;;;;;1.90;0.88;;;14.90;85.50;;;;;;5015725;28;20231;-72
2022/09/03 03:03:52;;;;;;;1.17;0.90;;;14.90;85.60;;;;;;5014988;28;20042;-73
2022/09/03 03:06:21;;;;;;;1.70;0.77;;;14.80;85.80;;;;;;5009186;28;20159;-73
2022/09/03 03:08:48;;;;;;;2.15;0.80;;;14.80;85.90;;;;;;5014336;28;20025;-72
2022/09/03 03:11:17;;;;;;;3.63;0.80;;;14.80;86.10;;;;;;5015434;28;20057;-72
2022/09/03 03:13:44;;;;;;;0.70;0.70;;;14.70;85.80;;;;;;5015913;28;20034;-72
2022/09/03 03:16:10;;;;;;;1.75;1.00;;;14.80;85.90;;;;;;5012258;28;20033;-73
2022/09/03 03:18:35;;;;;;;1.05;0.93;;;14.80;86.00;;;;;;5013728;28;20613;-73
2022/09/03 03:21:09;;;;;;;0.95;0.80;;;14.80;85.90;;;;;;5017899;28;20017;-72
2022/09/03 03:23:35;;;;;;;1.30;1.00;;;14.80;85.80;;;;;;5014019;28;20041;-73
2022/09/03 03:26:06;;;;;;;1.35;1.20;;;14.80;85.80;;;;;;5017484;28;20037;-73
2022/09/03 03:28:33;;;;;;;1.13;0.90;;;14.80;85.70;;;;;;5019649;28;20155;-72
2022/09/03 03:31:19;;;;;;;1.60;0.95;;;14.80;85.80;;;;;;5017546;28;20022;-72
2022/09/03 03:33:51;;;;;;;4.05;1.00;;;14.80;85.60;;;;;;5018445;28;21377;-73
2022/09/03 03:36:18;;;;;;;1.17;0.75;;;14.80;85.70;;;;;;5016490;28;20083;-73
2022/09/03 03:38:44;;;;;;;0.73;0.73;;;14.80;85.90;;;;;;5015902;28;20046;-73
2022/09/03 03:41:20;;;;;;;2.47;0.80;;;14.70;85.80;;;;;;5013175;28;20172;-73
2022/09/03 03:43:46;;;;;;;3.53;1.25;;;14.70;86.00;;;;;;5016275;28;20041;-73
2022/09/03 03:46:13;;;;;;;1.17;0.80;;;14.70;86.10;;;;;;5014710;28;20219;-72
2022/09/03 03:48:40;;;;;;;2.00;0.90;;;14.70;86.30;;;;;;5009916;28;20084;-73
2022/09/03 03:51:07;;;;;;;3.72;1.10;;;14.60;86.70;;;;;;5018187;28;20030;-72
2022/09/03 03:53:34;;;;;;;2.45;0.90;;;14.60;86.80;;;;;;5015283;28;20034;-72
2022/09/03 03:56:03;;;;;;;2.40;0.90;;;14.50;86.90;;;;;;5018314;28;20572;-72
2022/09/03 03:58:30;;;;;;;1.42;0.93;;;14.50;86.90;;;;;;5016616;28;20128;-72
2022/09/03 04:01:07;;;;;;;2.88;1.00;;;14.50;87.00;;;;;;5011621;28;20025;-72
2022/09/03 04:03:33;;;;;;;1.33;0.90;;;14.50;87.10;;;;;;5006898;28;20190;-73
2022/09/03 04:05:59;;;;;;;1.27;0.80;;;14.50;87.20;;;;;;5013499;28;20088;-72
2022/09/03 04:08:28;;;;;;;3.55;0.95;;;14.40;87.40;;;;;;5019839;28;20034;-73
2022/09/03 04:10:59;;;;;;;2.55;1.10;;;14.40;87.60;;;;;;5017189;28;20053;-72
2022/09/03 04:13:29;;;;;;;2.22;1.00;;;14.40;87.70;;;;;;5016488;28;20445;-73
2022/09/03 04:16:03;;;;;;;0.70;0.70;;;14.40;87.70;;;;;;5011081;28;20034;-72
2022/09/03 04:18:30;;;;;;;2.10;0.90;;;14.30;87.80;;;;;;5021134;28;20041;-73
2022/09/03 04:21:10;;;;;;;3.17;0.82;;;14.30;87.90;;;;;;5014970;28;20079;-73
2022/09/03 04:23:42;;;;;;;3.35;1.20;;;14.30;88.10;;;;;;5016922;28;20040;-72
2022/09/03 04:26:10;;;;;;;3.25;1.33;;;14.30;88.30;;;;;;5016033;28;20056;-72
2022/09/03 04:28:36;;;;;;;2.03;0.90;;;14.20;88.50;;;;;;5018496;28;20055;-73
2022/09/03 04:31:07;;;;;;;1.30;1.00;;;14.20;88.60;;;;;;5012489;28;20026;-72
2022/09/03 04:33:34;;;;;;;3.00;1.30;;;14.20;88.50;;;;;;5018952;28;20029;-73
2022/09/03 04:36:10;;;;;;;1.55;0.82;;;14.20;88.60;;;;;;5015691;28;20812;-73
2022/09/03 04:38:38;;;;;;;1.23;0.88;;;14.20;88.90;;;;;;5010636;28;20713;-72
2022/09/03 04:41:05;;;;;;;1.63;1.00;;;14.10;89.00;;;;;;5012162;28;20037;-73
2022/09/03 04:43:32;;;;;;;2.17;1.15;;;14.10;89.80;;;;;;5013744;28;20104;-73
2022/09/03 04:45:59;;;;;;;2.38;1.10;;;14.10;89.10;;;;;;5014054;28;20088;-73
2022/09/03 04:48:26;;;;;;;3.03;1.20;;;14.10;89.20;;;;;;5019523;28;20040;-73
2022/09/03 04:50:51;;;;;;;2.92;1.10;;;14.20;89.10;;;;;;5010374;28;20126;-73
2022/09/03 04:53:17;;;;;;;1.52;0.95;;;14.20;89.00;;;;;;5013272;28;20743;-73
2022/09/03 04:55:43;;;;;;;2.28;1.00;;;14.20;89.00;;;;;;5012855;28;20568;-73
2022/09/03 04:58:08;;;;;;;1.77;1.10;;;14.20;89.10;;;;;;5016481;28;20026;-73
2022/09/03 05:00:36;;;;;;;2.60;1.02;;;14.20;88.90;;;;;;5013693;28;20540;-72
2022/09/03 05:03:03;;;;;;;3.05;1.15;;;14.30;89.20;;;;;;5017170;28;20065;-73
2022/09/03 05:05:30;;;;;;;1.67;1.05;;;14.20;88.90;;;;;;5010925;28;20037;-73
2022/09/03 05:08:00;;;;;;;1.73;0.98;;;14.30;89.10;;;;;;5014660;28;20025;-73
2022/09/03 05:10:27;;;;;;;1.98;0.90;;;14.20;89.20;;;;;;5014839;28;20032;-73
2022/09/03 05:13:04;;;;;;;1.27;1.10;;;14.30;89.20;;;;;;5014702;28;20492;-73
2022/09/03 05:15:34;;;;;;;2.50;1.30;;;14.30;89.20;;;;;;5011663;28;20026;-73
2022/09/03 05:18:01;;;;;;;3.38;1.30;;;14.30;89.10;;;;;;5011798;28;20562;-73
2022/09/03 05:20:29;;;;;;;1.25;1.00;;;14.20;89.30;;;;;;5023009;28;20022;-73
2022/09/03 05:22:56;;;;;;;4.10;1.30;;;14.20;89.50;;;;;;5011893;28;20034;-73
2022/09/03 05:25:23;;;;;;;1.75;1.10;;;14.10;89.90;;;;;;5019279;28;20079;-74
2022/09/03 05:27:49;;;;;;;2.20;1.10;;;14.10;90.00;;;;;;5012924;28;20045;-73
2022/09/03 05:30:14;;;;;;;3.55;1.38;;;14.10;90.00;;;;;;5016475;28;20025;-73
2022/09/03 05:32:40;;;;;;;2.72;1.17;;;14.10;90.00;;;;;;5019600;28;20037;-73
2022/09/03 05:35:07;;;;;;;2.75;1.20;;;14.10;90.10;;;;;;5012496;28;20036;-73
2022/09/03 05:37:33;;;;;;;3.03;1.10;;;14.10;90.10;;;;;;5023794;28;20533;-73
2022/09/03 05:39:59;;;;;;;1.13;1.00;;;14.10;90.10;;;;;;5017544;28;20164;-73
2022/09/03 05:42:26;;;;;;;3.20;1.10;;;14.20;90.30;;;;;;4999249;28;20033;-73
2022/09/03 05:44:52;;;;;;;1.20;1.10;;;14.10;90.40;;;;;;5018095;28;20041;-73
2022/09/03 05:47:17;;;;;;;1.50;1.00;;;14.10;90.60;;;;;;5018136;28;20033;-73
2022/09/03 05:49:43;;;;;;;1.55;1.10;;;14.10;90.80;;;;;;5012996;28;20025;-73
2022/09/03 05:52:08;;;;;;;1.40;1.20;;;14.00;91.00;;;;;;5016761;28;20025;-73
2022/09/03 05:54:34;;;;;;;1.33;1.20;;;14.00;91.00;;;;;;5022796;28;20040;-74
2022/09/03 05:57:00;;;;;;;3.45;1.20;;;14.00;91.20;;;;;;5009203;28;20057;-74
2022/09/03 05:59:26;;;;;;;2.97;1.30;;;14.00;91.00;;;;;;5011788;28;20041;-75
2022/09/03 06:01:52;;;;;;;2.80;1.13;;;14.10;91.10;;;;;;5012800;28;20041;-74
2022/09/03 06:04:19;;;;;;;1.38;1.00;;;14.10;91.00;;;;;;5013880;28;20045;-74
2022/09/03 06:06:46;;;;;;;3.28;1.20;;;14.20;91.00;;;;;;5016854;28;20029;-74
2022/09/03 06:09:29;;;;;;;2.83;1.23;;;14.20;90.90;;;;;;5019487;28;20108;-75
2022/09/03 06:11:55;;;;;;;2.60;1.13;;;14.30;90.80;;;;;;5017281;28;20049;-74
2022/09/03 06:14:21;;;;;;;2.38;1.13;;;14.30;90.70;;;;;;5016902;28;20049;-74
2022/09/03 06:16:48;;;;;;;4.15;1.17;;;14.40;90.70;;;;;;5018576;28;20515;-72
2022/09/03 06:19:14;;;;;;;1.20;0.93;;;14.40;90.90;;;;;;5020053;28;20459;-72
2022/09/03 06:21:42;;;;;;;1.40;1.17;;;14.50;90.70;;;;;;5020400;28;20029;-73
2022/09/03 06:24:12;;;;;;;1.20;1.02;;;14.50;90.60;;;;;;5012095;28;20087;-73
2022/09/03 06:26:39;;;;;;;2.70;1.20;;;14.50;90.80;;;;;;5010130;28;20155;-73
2022/09/03 06:29:05;;;;;;;4.97;1.30;;;14.60;90.80;;;;;;5020626;28;20025;-73
2022/09/03 06:31:31;;;;;;;2.55;1.17;;;14.60;90.70;;;;;;5009955;28;20048;-73
2022/09/03 06:33:57;;;;;;;4.20;1.08;;;14.70;90.50;;;;;;5013375;28;20480;-72
2022/09/03 06:36:23;;;;;;;1.30;0.95;;;14.80;90.50;;;;;;5015770;28;20029;-73
2022/09/03 06:38:54;;;;;;;3.22;1.00;;;14.80;90.60;;;;;;5020899;28;20061;-73
2022/09/03 06:41:25;;;;;;;2.67;1.20;;;14.90;90.70;;;;;;5012293;28;20033;-73
2022/09/03 06:44:10;;;;;;;1.38;0.98;;;14.90;90.60;;;;;;5019514;28;20025;-75
2022/09/03 06:46:43;;;;;;;3.17;1.33;;;15.00;90.50;;;;;;5015724;28;20022;-76
2022/09/03 06:49:10;;;;;;;1.80;1.00;;;15.00;90.40;;;;;;5012876;28;20018;-76
2022/09/03 06:51:37;;;;;;;1.58;1.00;;;15.10;90.40;;;;;;5015349;28;20018;-73
2022/09/03 06:54:05;;;;;;;3.25;1.00;;;15.30;90.30;;;;;;5015968;28;20658;-73
2022/09/03 06:56:32;;;;;;;4.07;1.15;;;15.40;90.10;;;;;;5016477;28;20034;-73
2022/09/03 06:59:02;;;;;;;1.42;0.93;;;15.60;89.90;;;;;;5013886;28;20091;-74
2022/09/03 07:01:30;;;;;;;3.00;1.10;;;15.70;89.80;;;;;;5017036;28;20441;-77
2022/09/03 07:04:03;;;;;;;1.20;0.98;;;15.90;89.40;;;;;;5011180;28;20573;-74
2022/09/03 07:06:36;;;;;;;;;;;16.10;88.90;;;;;;5018780;28;20159;-74
2022/09/03 07:09:02;;;;;;;2.75;1.00;;;16.30;87.90;;;;;;5010542;28;19988;-81
2022/09/03 07:11:29;;;;;;;1.88;1.05;;;16.50;87.50;;;;;;5019634;28;20087;-75
2022/09/03 07:13:56;;;;;;;1.17;0.95;;;16.60;87.50;;;;;;5021384;28;20029;-76
2022/09/03 07:16:24;;;;;;;2.15;1.00;;;16.70;86.30;;;;;;5011753;28;20038;-74
2022/09/03 07:18:51;;;;;;;2.22;0.85;;;16.80;86.00;;;;;;5015868;28;20112;-77
2022/09/03 07:21:23;;;;;;;1.52;1.00;;;16.80;86.30;;;;;;5015273;28;20486;-77
2022/09/03 07:23:50;;;;;;;1.40;0.90;;;16.90;85.40;;;;;;5012968;28;20034;-77
2022/09/03 07:26:22;;;;;;;1.92;1.23;;;16.90;85.40;;;;;;5015714;28;20493;-76
2022/09/03 07:28:49;;;;;;;1.50;0.90;;;16.90;85.30;;;;;;5020075;28;20504;-76
2022/09/03 07:31:24;;;;;;;1.45;0.95;;;16.90;85.60;;;;;;5015132;28;20016;-75
2022/09/03 07:33:54;;;;;;;2.08;1.10;;;17.00;85.40;;;;;;5011260;28;20033;-74
2022/09/03 07:36:20;;;;;;;3.55;1.00;;;17.10;84.80;;;;;;5010662;28;20536;-75
2022/09/03 07:38:46;;;;;;;3.10;0.93;;;17.20;84.90;;;;;;5019821;28;20021;-74
2022/09/03 07:41:13;;;;;;;2.60;1.10;;;17.30;84.80;;;;;;5017407;28;20140;-74
2022/09/03 07:43:45;;;;;;;2.15;1.00;;;17.30;85.00;;;;;;5005775;28;20072;-77
2022/09/03 07:46:22;;;;;;;1.80;1.00;;;17.40;84.60;;;;;;5009928;28;20029;-75
2022/09/03 07:48:58;;;;;;;2.35;1.13;;;17.50;84.30;;;;;;5020607;28;20046;-74
2022/09/03 07:51:26;;;;;;;1.30;0.90;;;17.70;83.60;;;;;;5014677;28;20033;-74
2022/09/03 07:53:55;;;;;;;1.00;0.90;;;17.80;83.40;;;;;;5022572;28;20501;-76
2022/09/03 07:56:20;;;;;;;1.13;0.82;;;18.00;82.80;;;;;;5015230;28;20017;-76
2022/09/03 07:58:46;;;;;;;1.80;1.00;;;18.20;81.60;;;;;;5014334;28;20049;-76
2022/09/03 08:01:16;;;;;;;1.65;1.00;;;18.30;81.20;;;;;;5009471;28;20552;-78
2022/09/03 08:03:44;;;;;;;2.85;1.00;;;18.50;80.50;;;;;;5006342;28;20239;-75
2022/09/03 08:06:11;;;;;;;1.38;0.80;;;18.60;80.50;;;;;;5007920;28;20017;-75
2022/09/03 08:08:37;;;;;;;2.50;0.90;;;18.80;79.90;;;;;;5016343;28;20017;-75
2022/09/03 08:11:11;;;;;;;2.10;1.13;;;19.00;79.60;;;;;;5018925;28;20029;-75
2022/09/03 08:13:47;;;;;;;3.70;1.10;;;19.20;78.90;;;;;;5023040;28;20029;-75
2022/09/03 08:16:17;;;;;;;1.73;0.90;;;19.10;78.80;;;;;;5009352;28;20036;-75
2022/09/03 08:18:43;;;;;;;1.17;1.00;;;19.20;78.70;;;;;;5016556;28;20033;-76
2022/09/03 08:21:14;;;;;;;2.08;1.10;;;19.10;78.30;;;;;;5009894;28;20084;-75
2022/09/03 08:23:43;;;;;;;1.75;1.10;;;19.10;79.00;;;;;;5011195;28;20167;-75
2022/09/03 08:26:09;;;;;;;2.35;0.93;;;19.00;79.00;;;;;;5020469;28;20036;-75
2022/09/03 08:28:36;;;;;;;1.15;0.90;;;19.00;78.60;;;;;;5015570;28;20026;-82
2022/09/03 08:31:14;;;;;;;3.17;1.00;;;19.00;79.20;;;;;;5019720;28;20092;-75
2022/09/03 08:33:43;;;;;;;4.65;0.93;;;19.20;78.10;;;;;;5014026;28;20029;-75
2022/09/03 08:36:14;;;;;;;1.38;0.80;;;19.40;77.90;;;;;;5012479;28;20034;-75
2022/09/03 08:38:42;;;;;;;1.77;0.82;;;19.50;77.60;;;;;;5012353;28;20029;-75
2022/09/03 08:41:16;;;;;;;4.53;1.15;;;19.60;76.60;;;;;;4994328;28;20038;-76
2022/09/03 08:44:01;;;;;;;1.08;0.98;;;19.80;76.60;;;;;;5020756;28;20049;-75
2022/09/03 08:47:03;;;;;;;1.50;0.77;;;20.10;76.50;;;;;;5018414;28;20049;-75
2022/09/03 08:49:42;;;;;;;2.88;0.90;;;20.20;75.50;;;;;;4979439;28;20036;-75
2022/09/03 08:52:18;;;;;;;1.20;1.00;;;20.30;74.70;;;;;;5014309;28;20033;-76
2022/09/03 08:54:44;;;;;;;3.10;0.90;;;20.50;74.70;;;;;;5014470;28;20048;-75
2022/09/03 08:57:11;;;;;;;0.90;0.80;;;20.70;74.50;;;;;;5020019;28;20034;-76
2022/09/03 08:59:37;;;;;;;5.50;1.00;;;;;;;;;;5009206;28;20037;-74
2022/09/03 09:02:41;;;;;;;3.50;0.80;;;21.00;73.20;;;;;;5013585;28;20029;-74
2022/09/03 09:05:17;;;;;;;4.25;0.93;;;21.20;73.10;;;;;;5017244;28;20061;-74
2022/09/03 09:07:52;;;;;;;7.13;0.82;;;21.30;72.90;;;;;;5011597;28;20112;-75
2022/09/03 09:10:34;;;;;;;3.60;0.90;;;21.30;72.20;;;;;;5016803;28;20725;-75
2022/09/03 09:13:35;;;;;;;4.43;1.20;;;21.50;72.70;;;;;;5015072;28;20099;-73
2022/09/03 09:16:13;;;;;;;1.33;0.82;;;21.70;71.50;;;;;;5016249;28;20112;-77
2022/09/03 09:19:13;;;;;;;1.98;0.90;;;21.80;70.70;;;;;;5014178;28;20026;-74
2022/09/03 09:22:13;;;;;;;4.22;0.82;;;22.00;71.00;;;;;;5011163;28;20061;-74
2022/09/03 09:24:47;;;;;;;4.13;1.00;;;22.00;69.70;;;;;;4995571;28;20029;-74
2022/09/03 09:27:18;;;;;;;1.65;0.90;;;22.00;69.80;;;;;;5006261;28;20033;-77
2022/09/03 09:29:48;;;;;;;2.15;0.77;;;22.20;69.40;;;;;;5015521;28;20117;-74
2022/09/03 09:32:16;;;;;;;2.67;0.80;;;22.30;70.00;;;;;;5015869;28;20033;-74
2022/09/03 09:34:42;;;;;;;18.13;1.38;;;22.30;67.70;;;;;;5010616;28;21001;-74
2022/09/03 09:37:13;;;;;;;1.70;0.90;;;22.20;68.80;;;;;;5018526;28;20113;-76
2022/09/03 09:39:40;;;;;;;2.20;0.80;;;22.30;68.10;;;;;;5008962;28;20036;-76
2022/09/03 09:42:10;;;;;;;1.25;0.82;;;22.30;68.90;;;;;;5011360;28;20153;-76
2022/09/03 09:44:41;;;;;;;3.63;0.80;;;22.20;68.30;;;;;;5005537;28;20029;-77
2022/09/03 09:47:21;;;;;;;5.43;0.90;;;22.20;69.10;;;;;;5005646;28;20077;-76
2022/09/03 09:50:01;;;;;;;5.53;1.17;;;22.10;68.60;;;;;;5012847;28;20065;-76
2022/09/03 09:52:29;;;;;;;2.88;0.80;;;22.30;67.60;;;;;;5008416;28;20088;-75
2022/09/03 09:55:10;;;;;;;1.50;0.70;;;22.40;67.30;;;;;;5013103;28;20056;-76
2022/09/03 09:57:37;;;;;;;1.05;0.93;;;22.70;67.50;;;;;;5013881;28;20076;-76
2022/09/03 10:00:11;;;;;;;1.25;0.73;;;22.80;66.30;;;;;;5008171;28;20041;-75
2022/09/03 10:02:39;;;;;;;4.25;0.80;;;22.90;66.00;;;;;;5009438;28;20053;-76
2022/09/03 10:05:24;;;;;;;2.38;0.80;;;22.90;66.50;;;;;;5009008;28;20033;-76
2022/09/03 10:07:58;;;;;;;3.10;0.93;;;22.90;66.10;;;;;;5020169;28;20037;-75
2022/09/03 10:10:24;;;;;;;2.25;0.80;;;23.00;65.30;;;;;;5018600;28;20029;-73
2022/09/03 10:13:11;;;;;;;3.08;0.82;;;23.30;64.20;;;;;;5010732;28;20033;-74
2022/09/03 10:15:58;;;;;;;1.60;0.85;;;23.70;63.90;;;;;;5014554;28;20121;-73
2022/09/03 10:18:40;;;;;;;3.03;0.77;;;23.90;62.60;;;;;;5018313;28;20119;-73
2022/09/03 10:21:34;;;;;;;1.42;0.80;;;24.10;63.00;;;;;;5013992;28;20115;-73
2022/09/03 10:24:40;;;;;;;1.13;0.68;;;24.30;60.90;;;;;;5009507;28;20062;-73
2022/09/03 10:27:11;;;;;;;1.95;0.70;;;24.10;60.60;;;;;;5021428;28;20080;-73
2022/09/03 10:29:39;;;;;;;2.17;0.88;;;23.90;60.50;;;;;;5013019;28;20022;-74
2022/09/03 10:32:26;;;;;;;2.30;0.90;;;23.60;61.20;;;;;;5012889;28;20080;-74
2022/09/03 10:35:11;;;;;;;1.25;0.70;;;23.50;62.80;;;;;;5011741;28;20290;-73
2022/09/03 10:38:03;;;;;;;5.13;0.80;;;23.50;62.50;;;;;;5024062;28;20096;-74
2022/09/03 10:40:41;;;;;;;1.27;0.80;;;23.30;62.50;;;;;;5014397;28;20017;-73
2022/09/03 10:43:31;;;;;;;1.15;0.82;;;23.10;63.30;;;;;;5014944;28;20514;-73
2022/09/03 10:46:04;;;;;;;4.75;0.90;;;23.20;63.30;;;;;;5012877;28;20041;-73
2022/09/03 10:49:02;;;;;;;1.98;0.93;;;23.30;63.90;;;;;;5015373;28;20072;-74
2022/09/03 10:51:34;;;;;;;1.60;0.82;;;23.60;61.90;;;;;;5015438;28;20037;-74
2022/09/03 10:54:25;;;;;;;0.82;0.70;;;23.80;61.90;;;;;;5016457;28;20025;-73
2022/09/03 10:57:11;;;;;;;2.38;0.70;;;24.00;62.40;;;;;;5013008;28;20033;-74
2022/09/03 11:00:07;;;;;;;1.52;0.90;;;24.30;60.60;;;;;;5014939;28;20627;-74
2022/09/03 11:03:18;;;;;;;5.68;0.93;;;24.40;61.00;;;;;;5012937;28;20428;-74
2022/09/03 11:05:53;;;;;;;4.68;0.80;;;24.60;59.90;;;;;;5010075;28;20156;-74
2022/09/03 11:08:35;;;;;;;4.75;0.93;;;24.60;59.40;;;;;;5013683;28;20052;-75
2022/09/03 11:11:25;;;;;;;3.28;0.98;;;24.40;58.20;;;;;;5020657;28;20028;-73
2022/09/03 11:14:01;;;;;;;1.25;0.80;;;24.20;59.40;;;;;;5010556;28;20029;-79
2022/09/03 11:16:34;;;;;;;3.70;1.88;;;24.30;59.80;;;;;;5006031;28;20084;-75
2022/09/03 11:19:05;;;;;;;2.58;0.80;;;24.30;60.60;;;;;;5011391;28;20104;-76
2022/09/03 11:21:33;;;;;;;4.22;0.80;;;24.40;60.70;;;;;;5020506;28;20086;-76
2022/09/03 11:24:07;;;;;;;3.45;0.90;;;24.40;59.40;;;;;;5004789;28;20455;-77
2022/09/03 11:26:34;;;;;;;5.20;1.02;;;24.40;59.30;;;;;;5017445;28;20017;-75
2022/09/03 11:29:30;;;;;;;1.38;0.80;;;24.20;59.70;;;;;;5016560;28;20030;-75
2022/09/03 11:32:14;;;;;;;3.03;0.90;;;24.20;60.40;;;;;;5008570;28;20112;-75
2022/09/03 11:34:53;;;;;;;2.85;0.90;;;24.20;60.40;;;;;;5009653;28;20382;-74
2022/09/03 11:37:25;;;;;;;1.58;0.77;;;24.40;60.10;;;;;;5018315;28;20056;-74
2022/09/03 11:40:03;;;;;;;3.10;0.70;;;24.60;59.60;;;;;;5016161;28;20095;-74
2022/09/03 11:42:39;;;;;;;2.67;0.70;;;24.70;59.60;;;;;;5009862;28;20135;-74
2022/09/03 11:45:43;;;;;;;5.22;1.10;;;24.80;59.50;;;;;;5015946;28;20022;-74
2022/09/03 11:48:35;;;;;;;5.85;0.90;;;24.80;59.40;;;;;;5016694;28;20036;-75
2022/09/03 11:51:01;;;;;;;2.28;0.90;;;24.90;58.80;;;;;;5013980;28;20033;-77
2022/09/03 11:53:33;;;;;;;2.90;0.77;;;24.80;59.00;;;;;;5019166;28;20033;-77
2022/09/03 11:56:03;;;;;;;3.70;0.80;;;24.70;59.40;;;;;;5006570;28;20046;-77
2022/09/03 11:58:33;;;;;;;3.38;1.00;;;24.60;59.10;;;;;;5011158;28;20041;-77
2022/09/03 12:01:01;;;;;;;3.88;0.90;;;24.60;59.30;;;;;;5011990;28;20064;-77
2022/09/03 12:03:51;;;;;;;1.40;0.77;;;24.50;59.90;;;;;;5008976;28;20473;-77
2022/09/03 12:06:35;;;;;;;2.40;0.93;;;24.40;59.40;;;;;;5018086;28;20025;-75
2022/09/03 12:09:10;;;;;;;6.85;1.00;;;24.40;59.50;;;;;;5013961;28;20033;-75
2022/09/03 12:11:55;;;;;;;8.60;0.90;;;24.20;59.70;;;;;;5014751;28;20253;-74
2022/09/03 12:14:39;;;;;;;3.38;1.10;;;24.10;59.70;;;;;;5013022;28;20026;-74
2022/09/03 12:17:21;;;;;;;5.90;0.95;;;24.00;60.20;;;;;;5015348;28;20036;-74
2022/09/03 12:19:55;;;;;;;6.68;0.90;;;23.80;59.80;;;;;;5011687;28;20068;-75
2022/09/03 12:22:23;;;;;;;10.88;1.10;;;23.70;60.50;;;;;;5011849;28;20061;-77
2022/09/03 12:24:50;;;;;;;10.57;0.90;;;23.70;60.60;;;;;;5013449;28;20036;-76
2022/09/03 12:27:23;;;;;;;15.73;1.20;;;23.70;61.20;;;;;;5016264;28;20029;-75
2022/09/03 12:29:58;;;;;;;2.30;1.00;;;23.70;60.60;;;;;;5016081;28;20029;-78
2022/09/03 12:32:27;;;;;;;2.65;0.90;;;23.60;60.80;;;;;;5015086;28;20091;-74
2022/09/03 12:34:54;;;;;;;11.60;1.00;;;23.60;61.50;;;;;;5008119;28;20056;-74
2022/09/03 12:37:23;;;;;;;5.72;1.08;;;23.70;62.50;;;;;;5019417;28;20099;-76
2022/09/03 12:39:54;;;;;;;5.93;1.10;;;23.70;61.80;;;;;;5010554;28;20048;-75
2022/09/03 12:42:24;;;;;;;7.93;1.10;;;23.80;62.10;;;;;;5000245;28;20075;-75
2022/09/03 12:44:49;;;;;;;2.38;0.70;;;23.80;60.70;;;;;;5013502;28;20033;-75
2022/09/03 12:47:17;;;;;;;6.45;1.25;;;23.80;60.20;;;;;;5012871;28;20026;-75
2022/09/03 12:49:45;;;;;;;1.63;0.80;;;23.90;60.80;;;;;;5015733;28;20125;-75
2022/09/03 12:52:25;;;;;;;3.95;0.90;;;23.90;59.90;;;;;;5012934;28;20392;-75
2022/09/03 12:54:51;;;;;;;2.35;1.10;;;23.90;59.40;;;;;;5015303;28;20037;-74
2022/09/03 12:57:21;;;;;;;10.15;1.00;;;23.90;59.80;;;;;;5014275;28;20401;-74
2022/09/03 12:59:50;;;;;;;1.63;0.77;;;23.90;60.10;;;;;;5014106;28;20124;-73
2022/09/03 13:02:25;;;;;;;3.70;0.80;;;23.80;59.90;;;;;;5013362;28;20057;-75
2022/09/03 13:04:52;;;;;;;2.67;0.90;;;23.80;60.00;;;;;;5014457;28;20359;-73
2022/09/03 13:07:38;;;;;;;2.13;0.90;;;23.80;60.30;;;;;;5014214;28;20086;-74
2022/09/03 13:10:15;;;;;;;2.67;1.08;;;23.80;60.90;;;;;;5015072;28;20029;-74
2022/09/03 13:12:46;;;;;;;4.00;0.98;;;23.80;60.90;;;;;;5013406;28;20108;-75
2022/09/03 13:15:22;;;;;;;6.00;1.42;;;23.80;60.20;;;;;;5015461;28;20036;-75
2022/09/03 13:18:07;;;;;;;3.03;1.35;;;23.80;60.00;;;;;;5013090;28;20496;-77
2022/09/03 13:20:47;;;;;;;5.68;1.05;;;23.90;60.00;;;;;;5016656;28;20087;-76
2022/09/03 13:23:47;;;;;;;1.48;1.15;;;23.80;59.90;;;;;;5010915;28;20436;-77